Time;durP1;ratioP1;P1;durP2;ratioP2;P2;SDS_P1;SDS_P2;PMS_P1;PMS_P2;Temp;Humidity;BMP_temperature;BMP_pressure;BME280_temperature;BME280_humidity;BME280_pressure;Samples;Min_cycle;Max_cycle;Signal;HPM_P1;HPM_P2
2022/10/27 00:02:19;;;;;;;8.53;3.37;;;;;;;-143.84;65.63;45092.88;5029792;28;20965;-72
2022/10/27 00:04:46;;;;;;;7.53;3.43;;;;;;;-143.84;65.72;45110.00;5029482;28;20542;-73
2022/10/27 00:07:13;;;;;;;3.80;3.20;;;;;;;-143.84;65.76;45125.22;5029735;28;20460;-73
2022/10/27 00:09:41;;;;;;;4.13;3.30;;;;;;;-143.84;65.44;45092.88;5029431;28;20451;-73
2022/10/27 00:12:08;;;;;;;5.27;4.10;;;;;;;-143.84;65.59;45100.47;5029423;28;21007;-73
2022/10/27 00:14:36;;;;;;;7.83;4.00;;;;;;;-143.84;65.27;45098.56;5028717;28;20445;-73
2022/10/27 00:17:03;;;;;;;9.00;4.60;;;;;;;-143.84;65.54;45115.72;5029570;28;20512;-72
2022/10/27 00:19:31;;;;;;;6.37;3.50;;;;;;;-143.84;65.46;45125.22;5029537;28;20449;-72
2022/10/27 00:21:58;;;;;;;8.80;3.93;;;;;;;-143.84;65.24;45104.28;5029254;28;20947;-72
2022/10/27 00:24:25;;;;;;;7.90;3.40;;;;;;;-143.84;65.37;45098.56;5029345;28;20524;-72
2022/10/27 00:26:54;;;;;;;4.07;3.17;;;;;;;-143.84;65.33;45102.38;5029098;28;20504;-72
2022/10/27 00:29:21;;;;;;;3.60;3.30;;;;;;;-143.84;65.20;45106.19;5028779;28;20437;-72
2022/10/27 00:31:48;;;;;;;4.43;3.63;;;;;;;-143.84;65.29;45108.09;5028280;28;20492;-72
2022/10/27 00:34:15;;;;;;;6.10;3.50;;;;;;;-143.84;65.76;45110.00;5028593;28;20514;-72
2022/10/27 00:36:42;;;;;;;3.37;3.07;;;;;;;-143.84;65.57;45111.91;5028659;28;20937;-72
2022/10/27 00:39:09;;;;;;;6.70;3.53;;;;;;;-143.84;65.00;45087.16;5028547;28;20851;-73
2022/10/27 00:41:39;;;;;;;3.57;3.23;;;;;;;-143.84;65.29;45106.19;5028878;28;20459;-73
2022/10/27 00:44:33;;;;;;;8.23;3.63;;;;;;;-143.84;65.15;45102.38;5029023;28;21294;-73
2022/10/27 00:47:04;;;;;;;5.43;3.20;;;;;;;-143.84;65.05;45113.81;5028961;28;21270;-73
2022/10/27 00:49:38;;;;;;;3.47;3.17;;;;;;;-143.84;64.88;45115.72;5028796;28;20447;-72
2022/10/27 00:52:16;;;;;;;7.10;2.40;;;;;;;-143.84;64.78;45134.75;5028826;28;20485;-72
2022/10/27 00:54:43;;;;;;;3.40;2.50;;;;;;;-143.84;64.76;45102.38;5029266;28;20434;-72
2022/10/27 00:57:12;;;;;;;5.53;3.43;;;;;;;-143.84;64.88;45110.00;5029004;28;20439;-72
2022/10/27 00:59:41;;;;;;;2.93;2.63;;;;;;;-143.84;64.44;45115.72;5028766;28;20501;-72
2022/10/27 01:02:10;;;;;;;2.90;2.60;;;;;;;-143.84;64.16;45102.38;5028930;28;20442;-72
2022/10/27 01:04:44;;;;;;;6.87;3.83;;;;;;;-143.84;64.27;45100.47;5028820;28;20492;-72
2022/10/27 01:07:14;;;;;;;3.10;2.80;;;;;;;-143.84;64.28;45106.19;5028949;28;20514;-72
2022/10/27 01:09:42;;;;;;;4.13;3.33;;;;;;;-143.84;63.91;45094.78;5028546;28;20525;-69
2022/10/27 01:12:09;;;;;;;12.20;2.57;;;;;;;-143.84;63.49;45098.56;5027777;28;20488;-69
2022/10/27 01:14:37;;;;;;;5.03;2.80;;;;;;;-143.84;63.35;45134.75;5028416;28;20518;-69
2022/10/27 01:17:18;;;;;;;4.33;3.00;;;;;;;-143.84;63.20;45102.38;5028442;28;20445;-69
2022/10/27 01:20:28;;;;;;;4.40;2.80;;;;;;;-143.84;63.21;45077.63;5028887;28;20898;-69
2022/10/27 01:23:00;;;;;;;4.20;2.67;;;;;;;-143.84;63.00;45113.81;5028680;28;20452;-69
2022/10/27 01:25:53;;;;;;;6.00;3.23;;;;;;;-143.84;63.21;45094.78;5031223;28;20874;-69
2022/10/27 01:28:54;;;;;;;3.33;2.87;;;;;;;-143.84;62.83;45092.88;5012845;28;20446;-69
2022/10/27 01:31:28;;;;;;;2.90;2.70;;;;;;;-143.84;62.54;45092.88;5012749;28;20561;-69
2022/10/27 01:34:01;;;;;;;2.83;2.67;;;;;;;-143.84;62.60;45129.03;5012582;28;20981;-69
2022/10/27 01:36:34;;;;;;;2.27;2.00;;;;;;;-143.84;62.77;45115.72;5013718;28;20511;-69
2022/10/27 01:39:06;;;;;;;6.33;3.23;;;;;;;-143.84;62.46;45094.78;5032145;28;20451;-69
2022/10/27 01:41:38;;;;;;;7.03;2.73;;;;;;;-143.84;61.91;45119.53;5032104;28;21032;-69
2022/10/27 01:44:11;;;;;;;3.00;2.67;;;;;;;-143.84;62.19;45070.00;5032336;28;20511;-72
2022/10/27 01:46:41;;;;;;;3.40;2.50;;;;;;;-143.84;62.06;45102.38;5032182;28;20527;-72
2022/10/27 01:49:09;;;;;;;5.00;2.80;;;;;;;-143.84;62.11;45104.28;5032129;28;20518;-72
2022/10/27 01:51:36;;;;;;;2.77;2.57;;;;;;;-143.84;62.29;45115.72;5031958;28;20483;-72
2022/10/27 01:54:06;;;;;;;4.20;3.07;;;;;;;-143.84;61.80;45123.34;5031835;28;20444;-72
2022/10/27 01:57:11;;;;;;;6.00;3.07;;;;;;;-143.84;61.54;45087.16;5031836;28;20456;-72
2022/10/27 01:59:54;;;;;;;3.30;3.00;;;;;;;-143.84;61.39;45117.63;5031829;28;21079;-72
2022/10/27 02:02:33;;;;;;;5.53;3.10;;;;;;;-143.84;61.22;45096.66;5031112;28;20448;-72
2022/10/27 02:05:07;;;;;;;3.47;3.10;;;;;;;-143.84;61.12;45108.09;5031556;28;20545;-72
2022/10/27 02:07:42;;;;;;;14.23;2.63;;;;;;;-143.84;61.07;45113.81;5031501;28;20443;-72
2022/10/27 02:10:16;;;;;;;4.23;3.10;;;;;;;-143.84;61.01;45108.09;5031372;28;21001;-72
2022/10/27 02:12:45;;;;;;;5.13;2.83;;;;;;;-143.84;61.01;45115.72;5031653;28;20552;-72
2022/10/27 02:15:23;;;;;;;4.17;2.30;;;;;;;-143.84;61.05;45092.88;5031520;28;20468;-72
2022/10/27 02:17:57;;;;;;;5.13;3.00;;;;;;;-143.84;61.02;45111.91;5031933;28;20447;-72
2022/10/27 02:20:29;;;;;;;2.93;2.70;;;;;;;-143.84;60.96;45108.09;5031589;28;20445;-72
2022/10/27 02:23:01;;;;;;;3.20;2.90;;;;;;;-143.84;60.74;45115.72;5031586;28;20460;-72
2022/10/27 02:25:35;;;;;;;2.33;2.10;;;;;;;-143.84;60.50;45102.38;5031576;28;20449;-72
2022/10/27 02:28:07;;;;;;;3.50;2.40;;;;;;;-143.84;60.56;45085.25;5031281;28;20449;-72
2022/10/27 02:30:35;;;;;;;4.40;2.80;;;;;;;-143.84;60.43;45146.19;5031049;28;20448;-72
2022/10/27 02:33:04;;;;;;;2.50;2.30;;;;;;;-143.84;60.32;45117.63;5023923;28;20917;-72
2022/10/27 02:35:32;;;;;;;6.97;2.20;;;;;;;-143.84;60.11;45098.56;5030697;28;20457;-72
2022/10/27 02:37:59;;;;;;;3.30;3.00;;;;;;;-143.84;59.94;45108.09;5011024;28;20451;-72
2022/10/27 02:40:26;;;;;;;2.70;2.50;;;;;;;-143.84;59.81;45132.84;5018488;28;20536;-72
2022/10/27 02:42:53;;;;;;;4.83;2.87;;;;;;;-143.84;59.78;45094.78;5031176;28;20512;-72
2022/10/27 02:45:21;;;;;;;2.67;2.47;;;;;;;-143.84;59.34;45098.56;5030482;28;20452;-72
2022/10/27 02:47:48;;;;;;;4.20;2.93;;;;;;;-143.84;59.57;45098.56;5030187;28;20454;-72
2022/10/27 02:50:16;;;;;;;3.17;2.87;;;;;;;-143.84;59.69;45098.56;5030417;28;20456;-72
2022/10/27 02:52:44;;;;;;;3.20;2.50;;;;;;;-143.84;59.96;45094.78;5030102;28;20492;-72
2022/10/27 02:55:11;;;;;;;3.00;2.80;;;;;;;-143.84;60.10;45102.38;5030415;28;20442;-72
2022/10/27 02:57:38;;;;;;;9.50;3.13;;;;;;;-143.84;60.04;45094.78;5030276;28;20460;-72
2022/10/27 03:00:07;;;;;;;4.43;2.70;;;;;;;-143.84;60.28;45079.53;5030024;28;20448;-72
2022/10/27 03:02:34;;;;;;;2.60;2.40;;;;;;;-143.84;60.21;45090.97;5030601;28;21261;-72
2022/10/27 03:05:02;;;;;;;3.67;2.40;;;;;;;-143.84;60.11;45106.19;5030350;28;20473;-72
2022/10/27 03:07:30;;;;;;;2.90;2.23;;;;;;;-143.84;60.41;45106.19;5030843;28;20449;-72
2022/10/27 03:09:58;;;;;;;4.30;2.97;;;;;;;-143.84;60.44;45094.78;5030565;28;20891;-72
2022/10/27 03:12:25;;;;;;;3.23;2.83;;;;;;;-143.84;60.30;45113.81;5030148;28;20476;-72
2022/10/27 03:14:52;;;;;;;3.20;2.10;;;;;;;-143.84;60.61;45108.09;5030336;28;20508;-72
2022/10/27 03:17:19;;;;;;;2.67;2.47;;;;;;;-143.84;60.03;45094.78;5029806;28;20875;-72
2022/10/27 03:19:46;;;;;;;3.20;2.63;;;;;;;-143.84;60.18;45089.06;5029833;28;20452;-72
2022/10/27 03:22:13;;;;;;;11.00;2.50;;;;;;;-143.84;60.13;45102.38;5024410;28;21030;-72
2022/10/27 03:24:42;;;;;;;3.50;2.53;;;;;;;-143.84;59.90;45115.72;5029570;28;20448;-72
2022/10/27 03:27:09;;;;;;;4.37;2.90;;;;;;;-143.84;59.95;45106.19;5030218;28;20454;-72
2022/10/27 03:29:36;;;;;;;2.67;2.47;;;;;;;-143.84;59.87;45094.78;5030072;28;20519;-72
2022/10/27 03:32:04;;;;;;;14.70;2.93;;;;;;;-143.84;59.62;45129.03;5029579;28;20481;-72
2022/10/27 03:34:31;;;;;;;3.30;2.00;;;;;;;-143.84;59.70;45090.97;5030034;28;20512;-72
2022/10/27 03:36:58;;;;;;;3.30;2.93;;;;;;;-143.84;59.50;45110.00;5029572;28;20438;-72
2022/10/27 03:39:25;;;;;;;2.40;2.20;;;;;;;-143.84;59.37;45110.00;5029739;28;20446;-72
2022/10/27 03:41:54;;;;;;;4.80;3.50;;;;;;;-143.84;59.39;45115.72;5029857;28;20446;-72
2022/10/27 03:44:21;;;;;;;6.63;3.70;;;;;;;-143.84;59.56;45113.81;5029417;28;21257;-72
2022/10/27 03:46:48;;;;;;;6.33;3.23;;;;;;;-143.84;59.55;45098.56;5029660;28;20525;-72
2022/10/27 03:49:15;;;;;;;15.90;3.60;;;;;;;-143.84;59.42;45098.56;5025902;28;20543;-72
2022/10/27 03:51:52;;;;;;;4.07;3.73;;;;;;;-143.84;59.23;45100.47;5025841;28;20435;-72
2022/10/27 03:54:19;;;;;;;11.03;8.33;;;;;;;-143.84;66.74;45102.38;5025238;28;20457;-71
2022/10/27 03:56:48;;;;;;;17.97;12.00;;;;;;;-143.84;73.57;45117.63;5026940;28;20450;-71
2022/10/27 03:59:16;;;;;;;14.83;10.60;;;;;;;-143.84;74.43;45108.09;5028891;28;20442;-72
2022/10/27 04:01:43;;;;;;;12.80;10.03;;;;;;;-143.84;74.64;45098.56;5028269;28;21468;-72
2022/10/27 04:04:11;;;;;;;14.07;10.63;;;;;;;-143.84;74.99;45121.44;5028116;28;21242;-72
2022/10/27 04:06:39;;;;;;;9.00;8.10;;;;;;;-143.84;76.49;45096.66;5014160;28;20437;-72
2022/10/27 04:09:06;;;;;;;10.13;8.00;;;;;;;-143.84;77.35;45117.63;5007768;28;20445;-72
2022/10/27 04:11:33;;;;;;;13.20;8.00;;;;;;;-143.84;77.61;45123.34;5007505;28;20512;-72
2022/10/27 04:14:00;;;;;;;12.67;7.00;;;;;;;-143.84;77.58;45092.88;5007746;28;20893;-72
2022/10/27 04:16:29;;;;;;;8.53;5.80;;;;;;;-143.84;77.69;45092.88;5026015;28;20512;-72
2022/10/27 04:18:56;;;;;;;11.00;6.13;;;;;;;-143.84;77.32;45094.78;5015970;28;20458;-72
2022/10/27 04:21:23;;;;;;;12.27;6.80;;;;;;;-143.84;77.11;45090.97;5017042;28;20449;-71
2022/10/27 04:23:50;;;;;;;11.60;6.60;;;;;;;-143.84;76.63;45115.72;5014919;28;20437;-72
2022/10/27 04:26:20;;;;;;;6.30;5.23;;;;;;;-143.84;76.52;45119.53;5018550;28;20456;-72
2022/10/27 04:28:47;;;;;;;7.30;5.13;;;;;;;-143.84;76.34;45092.88;5011229;28;20451;-71
2022/10/27 04:31:14;;;;;;;14.40;5.50;;;;;;;-143.84;76.09;45117.63;5010439;28;20450;-71
2022/10/27 04:33:43;;;;;;;9.60;4.97;;;;;;;-143.84;76.04;45110.00;5010333;28;20479;-71
2022/10/27 04:36:10;;;;;;;4.63;4.23;;;;;;;-143.84;74.76;45119.53;5008889;28;20443;-75
2022/10/27 04:38:37;;;;;;;8.27;4.30;;;;;;;-143.84;73.36;45108.09;5006264;28;21046;-72
2022/10/27 04:41:04;;;;;;;4.73;4.10;;;;;;;-143.84;72.85;45125.22;5008894;28;20438;-71
2022/10/27 04:43:31;;;;;;;9.00;4.03;;;;;;;-143.84;71.81;45111.91;5009382;28;20455;-72
2022/10/27 04:45:59;;;;;;;6.13;2.40;;;;;;;-143.84;70.12;45111.91;5005852;28;20819;-72
2022/10/27 04:48:26;;;;;;;4.27;2.97;;;;;;;-143.84;68.69;45134.75;5008620;28;20445;-72
2022/10/27 04:50:54;;;;;;;7.30;3.17;;;;;;;-143.84;68.36;45117.63;5008794;28;20589;-72
2022/10/27 04:53:21;;;;;;;5.90;3.43;;;;;;;-143.84;68.30;45115.72;5008633;28;20551;-72
2022/10/27 04:55:51;;;;;;;7.87;3.07;;;;;;;-143.84;67.87;45098.56;5008663;28;20447;-72
2022/10/27 04:58:18;;;;;;;6.87;3.20;;;;;;;-143.84;67.81;45138.56;5008326;28;20473;-72
2022/10/27 05:00:46;;;;;;;11.50;3.67;;;;;;;-143.84;67.96;45113.81;5007846;28;20510;-72
2022/10/27 05:03:13;;;;;;;7.13;3.67;;;;;;;-143.84;68.05;45134.75;5008181;28;20451;-72
2022/10/27 05:05:40;;;;;;;9.33;3.50;;;;;;;-143.84;68.29;45113.81;5023097;28;20552;-72
2022/10/27 05:08:11;;;;;;;10.10;3.13;;;;;;;-143.84;68.53;45098.56;5027753;28;20504;-72
2022/10/27 05:10:38;;;;;;;8.70;3.60;;;;;;;-143.84;69.26;45111.91;5027655;28;20488;-72
2022/10/27 05:13:05;;;;;;;11.17;3.37;;;;;;;-143.84;69.57;45110.00;5027611;28;20482;-72
2022/10/27 05:15:32;;;;;;;5.73;3.20;;;;;;;-143.84;70.03;45125.22;5027704;28;20510;-72
2022/10/27 05:17:59;;;;;;;4.87;3.50;;;;;;;-143.84;70.29;45113.81;5027983;28;20449;-72
2022/10/27 05:20:27;;;;;;;10.10;3.40;;;;;;;-143.84;69.83;45117.63;5027010;28;20521;-72
2022/10/27 05:22:54;;;;;;;5.10;3.47;;;;;;;-143.84;69.06;45108.09;5028357;28;20535;-72
2022/10/27 05:25:22;;;;;;;5.00;3.10;;;;;;;-143.84;68.88;45121.44;5028501;28;20446;-72
2022/10/27 05:27:49;;;;;;;7.43;3.60;;;;;;;-143.84;68.96;45136.66;5028522;28;20448;-72
2022/10/27 05:30:17;;;;;;;9.73;3.90;;;;;;;-143.84;68.98;45119.53;5028132;28;20515;-72
2022/10/27 05:32:44;;;;;;;13.70;3.53;;;;;;;-143.84;68.46;45096.66;5027916;28;20477;-72
2022/10/27 05:35:11;;;;;;;5.13;3.33;;;;;;;-143.84;67.40;45119.53;5028200;28;20473;-72
2022/10/27 05:37:44;;;;;;;4.77;3.20;;;;;;;-143.84;67.43;45100.47;5027905;28;20451;-72
2022/10/27 05:40:11;;;;;;;4.90;2.83;;;;;;;-143.84;67.55;45110.00;5027568;28;20948;-72
2022/10/27 05:42:40;;;;;;;3.17;2.83;;;;;;;-143.84;67.22;45104.28;5027802;28;20431;-72
2022/10/27 05:45:09;;;;;;;3.57;3.20;;;;;;;-143.84;67.47;45089.06;5027800;28;20450;-72
2022/10/27 05:47:36;;;;;;;3.70;3.40;;;;;;;-143.84;65.97;45090.97;5010275;28;20449;-72
2022/10/27 05:50:03;;;;;;;3.80;3.10;;;;;;;-143.84;65.20;45117.63;5027983;28;20576;-72
2022/10/27 05:52:30;;;;;;;5.33;3.33;;;;;;;-143.84;65.03;45125.22;5028246;28;20871;-72
2022/10/27 05:54:57;;;;;;;2.90;2.70;;;;;;;-143.84;65.20;45100.47;5028023;28;20434;-72
2022/10/27 05:57:24;;;;;;;12.73;3.60;;;;;;;-143.84;62.87;45098.56;5028161;28;20508;-72
2022/10/27 05:59:53;;;;;;;3.20;2.83;;;;;;;-143.84;61.79;45111.91;5028114;28;20952;-72
2022/10/27 06:02:20;;;;;;;6.87;3.80;;;;;;;-143.84;60.97;45092.88;5028599;28;20504;-72
2022/10/27 06:04:47;;;;;;;4.70;3.50;;;;;;;-143.84;61.56;45092.88;5027992;28;20494;-72
2022/10/27 06:07:14;;;;;;;6.90;3.57;;;;;;;-143.84;61.59;45085.25;5027934;28;20458;-72
2022/10/27 06:09:41;;;;;;;5.07;3.67;;;;;;;-143.84;60.93;45077.63;5027680;28;20458;-72
2022/10/27 06:12:08;;;;;;;9.90;4.30;;;;;;;-143.84;59.46;45096.66;5029391;28;20443;-72
2022/10/27 06:14:35;;;;;;;6.20;4.47;;;;;;;-143.84;59.53;45071.91;5031423;28;20482;-72
2022/10/27 06:17:04;;;;;;;12.80;4.00;;;;;;;-143.84;59.43;45096.66;5031831;28;20451;-72
2022/10/27 06:19:31;;;;;;;4.13;3.73;;;;;;;-143.84;58.91;45068.13;5031306;28;20447;-72
2022/10/27 06:21:58;;;;;;;5.70;3.43;;;;;;;-143.84;59.16;45062.41;5031381;28;21010;-72
2022/10/27 06:24:25;;;;;;;12.40;4.07;;;;;;;-143.84;59.63;45081.44;5031536;28;20466;-72
2022/10/27 06:26:53;;;;;;;4.87;4.40;;;;;;;-143.84;59.70;45075.72;5031346;28;20438;-72
2022/10/27 06:29:20;;;;;;;5.47;3.80;;;;;;;-143.84;58.67;45079.53;5031212;28;20458;-72
2022/10/27 06:31:47;;;;;;;4.93;4.47;;;;;;;-143.84;57.25;45081.44;5031008;28;20443;-72
2022/10/27 06:34:15;;;;;;;5.30;3.17;;;;;;;-143.84;56.39;45090.97;5031251;28;20486;-73
2022/10/27 06:36:42;;;;;;;4.93;4.20;;;;;;;-143.84;56.52;45090.97;5030400;28;20513;-72
2022/10/27 06:39:10;;;;;;;13.30;3.37;;;;;;;-143.84;55.51;45077.63;5030885;28;20449;-72
2022/10/27 06:41:37;;;;;;;9.70;4.10;;;;;;;-143.84;55.17;45068.13;5031106;28;20434;-72
2022/10/27 06:44:04;;;;;;;5.40;3.53;;;;;;;-143.84;55.66;45075.72;5030926;28;20450;-72
2022/10/27 06:46:33;;;;;;;4.90;3.30;;;;;;;-143.84;57.07;45094.78;5031078;28;20455;-72
2022/10/27 06:49:00;;;;;;;8.33;4.30;;;;;;;-143.84;56.02;45096.66;5030809;28;20537;-72
2022/10/27 06:51:29;;;;;;;7.90;3.70;;;;;;;-143.84;54.58;45064.31;5030844;28;21039;-72
2022/10/27 06:53:56;;;;;;;8.53;4.00;;;;;;;-143.84;56.45;45041.44;5030952;28;20544;-72
2022/10/27 06:56:23;;;;;;;14.70;6.07;;;;;;;-143.84;57.36;45081.44;5030879;28;20451;-72
2022/10/27 06:58:50;;;;;;;21.43;7.23;;;;;;;-143.84;56.52;45070.00;5031379;28;20453;-72
2022/10/27 07:01:17;;;;;;;28.77;6.93;;;;;;;-143.84;56.64;45075.72;5030865;28;20508;-72
2022/10/27 07:03:45;;;;;;;28.37;10.30;;;;;;;-143.84;57.76;45087.16;5030861;28;21018;-72
2022/10/27 07:06:12;;;;;;;19.47;8.13;;;;;;;-143.84;56.91;45083.34;5030426;28;20528;-72
2022/10/27 07:08:41;;;;;;;17.60;6.63;;;;;;;-143.84;56.12;45083.34;5030624;28;20435;-72
2022/10/27 07:11:08;;;;;;;7.93;5.50;;;;;;;-143.84;55.07;45089.06;5030409;28;20847;-72
2022/10/27 07:13:35;;;;;;;6.70;4.10;;;;;;;-143.84;53.81;45075.72;5030156;28;20485;-72
2022/10/27 07:16:03;;;;;;;5.07;4.57;;;;;;;-143.84;51.69;45058.59;5031043;28;20442;-72
2022/10/27 07:18:32;;;;;;;12.73;4.33;;;;;;;-143.84;52.25;45083.34;5030306;28;20447;-72
2022/10/27 07:21:00;;;;;;;7.13;3.80;;;;;;;-143.84;50.24;45047.16;5029361;28;20532;-72
2022/10/27 07:23:27;;;;;;;6.90;3.67;;;;;;;-143.84;50.83;45066.22;5029442;28;20516;-68
2022/10/27 07:25:55;;;;;;;5.13;4.63;;;;;;;-143.84;52.58;45068.13;5029536;28;20447;-69
2022/10/27 07:28:22;;;;;;;8.77;5.00;;;;;;;-143.84;52.55;45030.03;5030243;28;20442;-69
2022/10/27 07:30:49;;;;;;;11.77;4.67;;;;;;;-143.84;50.66;45068.13;5030291;28;20439;-69
2022/10/27 07:33:17;;;;;;;12.40;4.13;;;;;;;-143.84;48.65;45056.69;5030359;28;20482;-69
2022/10/27 07:35:48;;;;;;;7.67;4.60;;;;;;;-143.84;48.38;45073.81;5029975;28;20451;-69
2022/10/27 07:38:15;;;;;;;4.63;4.20;;;;;;;-143.84;48.50;45058.59;5029887;28;20450;-69
2022/10/27 07:40:42;;;;;;;10.97;4.87;;;;;;;-143.84;48.61;45066.22;5030121;28;20807;-69
2022/10/27 07:43:11;;;;;;;13.13;5.30;;;;;;;-143.84;48.57;45049.06;5029194;28;20443;-69
2022/10/27 07:45:40;;;;;;;12.60;4.50;;;;;;;-143.84;46.50;45073.81;5029810;28;20462;-69
2022/10/27 07:48:11;;;;;;;16.43;4.77;;;;;;;-143.84;47.12;45062.41;5029702;28;20442;-69
2022/10/27 07:50:38;;;;;;;7.07;4.23;;;;;;;-143.84;45.45;45062.41;5029976;28;21304;-69
2022/10/27 07:53:06;;;;;;;4.87;4.17;;;;;;;-143.84;45.64;45075.72;5029646;28;20458;-69
2022/10/27 07:55:35;;;;;;;5.30;4.63;;;;;;;-143.84;45.15;45070.00;5029557;28;20445;-69
2022/10/27 07:58:04;;;;;;;5.93;3.87;;;;;;;-143.84;44.89;45050.97;5029055;28;20481;-69
2022/10/27 08:00:34;;;;;;;6.43;3.80;;;;;;;-143.84;44.30;45062.41;5029379;28;20824;-69
2022/10/27 08:03:02;;;;;;;7.90;3.87;;;;;;;-143.84;43.71;45049.06;5029320;28;20871;-69
2022/10/27 08:05:30;;;;;;;8.63;4.40;;;;;;;-143.84;43.61;45039.53;5029093;28;20486;-69
2022/10/27 08:07:59;;;;;;;9.23;4.67;;;;;;;-143.84;42.67;45030.03;5030004;28;20813;-68
2022/10/27 08:10:26;;;;;;;16.33;4.60;;;;;;;-143.84;43.40;45033.84;5029248;28;20474;-69
2022/10/27 08:12:53;;;;;;;11.30;4.70;;;;;;;-143.84;41.33;45020.50;5029315;28;20500;-69
2022/10/27 08:15:23;;;;;;;4.40;3.63;;;;;;;-143.84;41.65;45020.50;5029364;28;20491;-69
2022/10/27 08:17:53;;;;;;;20.00;4.47;;;;;;;-143.84;41.75;45022.41;5029009;28;20987;-69
2022/10/27 08:20:21;;;;;;;15.80;5.63;;;;;;;-143.84;40.18;45014.78;5029364;28;20500;-69
2022/10/27 08:22:55;;;;;;;12.77;6.57;;;;;;;-143.84;40.22;45039.53;5029107;28;20983;-69
2022/10/27 08:25:22;;;;;;;16.37;5.33;;;;;;;-143.84;40.60;45037.66;5028789;28;20525;-69
2022/10/27 08:27:50;;;;;;;17.40;4.90;;;;;;;-143.84;40.47;45010.97;5028915;28;20450;-69
2022/10/27 08:30:17;;;;;;;6.93;4.67;;;;;;;-143.84;40.79;44997.66;5028949;28;20677;-69
2022/10/27 08:32:44;;;;;;;8.30;5.40;;;;;;;-143.84;41.84;45031.94;5029055;28;20925;-69
2022/10/27 08:35:13;;;;;;;6.13;4.70;;;;;;;-143.84;42.29;45031.94;5028172;28;20482;-69
2022/10/27 08:37:40;;;;;;;10.43;5.30;;;;;;;-143.84;42.06;45050.97;5028991;28;20878;-72
2022/10/27 08:40:09;;;;;;;10.17;5.63;;;;;;;-143.84;42.74;45014.78;5029090;28;20860;-72
2022/10/27 08:42:44;;;;;;;12.83;7.20;;;;;;;-143.84;43.26;45047.16;5028867;28;20435;-72
2022/10/27 08:45:16;;;;;;;11.07;7.10;;;;;;;-143.84;43.35;45033.84;5028910;28;20451;-72
2022/10/27 08:47:45;;;;;;;11.10;7.03;;;;;;;-143.84;43.25;45045.25;5028761;28;20447;-72
2022/10/27 08:50:17;;;;;;;14.30;7.93;;;;;;;-143.84;44.59;45041.44;5028857;28;20508;-72
2022/10/27 08:52:49;;;;;;;9.07;6.77;;;;;;;-143.84;43.90;45052.88;5028778;28;20447;-72
2022/10/27 08:55:23;;;;;;;10.93;6.70;;;;;;;-143.84;45.15;45037.66;5028716;28;20822;-72
2022/10/27 08:57:58;;;;;;;11.00;6.83;;;;;;;-143.84;45.15;45033.84;5029095;28;20434;-72
2022/10/27 09:00:25;;;;;;;15.97;7.97;;;;;;;-143.84;44.94;45035.75;5028704;28;20430;-72
2022/10/27 09:03:25;;;;;;;12.93;8.57;;;;;;;-143.84;44.81;45056.69;5028397;28;20449;-72
2022/10/27 09:06:07;;;;;;;13.70;8.40;;;;;;;-143.84;45.10;45035.75;5028645;28;20486;-72
2022/10/27 09:08:43;;;;;;;11.83;8.80;;;;;;;-143.84;45.34;45020.50;5028489;28;20447;-72
2022/10/27 09:11:18;;;;;;;17.33;8.80;;;;;;;-143.84;45.92;45026.22;5028485;28;20443;-72
2022/10/27 09:14:01;;;;;;;12.77;7.87;;;;;;;-143.84;46.22;45033.84;5028136;28;20596;-72
2022/10/27 09:16:35;;;;;;;13.87;7.33;;;;;;;-143.84;45.92;44997.66;5028523;28;20449;-72
2022/10/27 09:19:07;;;;;;;12.87;8.17;;;;;;;-143.84;46.43;45035.75;5028391;28;20457;-72
2022/10/27 09:21:39;;;;;;;11.73;7.70;;;;;;;-143.84;47.20;45043.34;5028379;28;20447;-72
2022/10/27 09:24:13;;;;;;;14.40;7.63;;;;;;;-143.84;47.55;45028.13;5028443;28;20459;-72
2022/10/27 09:26:42;;;;;;;13.83;7.90;;;;;;;-143.84;47.64;45028.13;5028407;28;20461;-72
2022/10/27 09:29:19;;;;;;;11.33;7.37;;;;;;;-143.84;48.99;45030.03;5028718;28;20443;-72
2022/10/27 09:31:51;;;;;;;12.37;7.40;;;;;;;-143.84;47.63;45047.16;5028561;28;20453;-72
2022/10/27 09:34:25;;;;;;;11.40;6.80;;;;;;;-143.84;47.32;45037.66;5028320;28;20577;-71
2022/10/27 09:36:54;;;;;;;12.27;7.23;;;;;;;-143.84;47.36;45054.78;5028378;28;20828;-72
2022/10/27 09:39:22;;;;;;;11.20;7.90;;;;;;;-143.84;47.12;45047.16;5028226;28;20446;-69
2022/10/27 09:41:49;;;;;;;14.57;6.87;;;;;;;-143.84;46.73;45041.44;5027880;28;20458;-69
2022/10/27 09:44:20;;;;;;;11.67;6.90;;;;;;;-143.84;47.08;45035.75;5027843;28;20565;-68
2022/10/27 09:46:51;;;;;;;10.23;7.80;;;;;;;-143.84;47.63;45030.03;5031112;28;20870;-69
2022/10/27 09:49:21;;;;;;;9.87;6.27;;;;;;;-143.84;47.63;45030.03;5032222;28;20473;-69
2022/10/27 09:51:53;;;;;;;16.53;7.30;;;;;;;-143.84;47.39;45024.31;5031865;28;20451;-69
2022/10/27 09:54:33;;;;;;;9.13;6.27;;;;;;;-143.84;46.84;45010.97;5031936;28;20548;-68
2022/10/27 09:57:07;;;;;;;10.57;6.47;;;;;;;-143.84;47.08;45022.41;5031916;28;20446;-68
2022/10/27 09:59:37;;;;;;;12.17;6.37;;;;;;;-143.84;47.34;45033.84;5031851;28;20434;-68
2022/10/27 10:02:06;;;;;;;8.00;6.67;;;;;;;-143.84;47.32;45026.22;5032094;28;20439;-68
2022/10/27 10:04:37;;;;;;;11.70;7.63;;;;;;;-143.84;48.14;45033.84;5031498;28;20493;-68
2022/10/27 10:07:07;;;;;;;11.33;6.97;;;;;;;-143.84;48.58;45018.59;5032003;28;20501;-71
2022/10/27 10:09:38;;;;;;;10.37;6.27;;;;;;;-143.84;48.74;44993.84;5031934;28;20439;-71
2022/10/27 10:12:23;;;;;;;9.90;6.50;;;;;;;-143.84;49.47;44995.75;5031152;28;20454;-71
2022/10/27 10:14:51;;;;;;;7.80;5.80;;;;;;;-143.84;50.66;45024.31;5030788;28;20486;-71
2022/10/27 10:17:22;;;;;;;10.60;6.13;;;;;;;-143.84;51.24;45028.13;5031414;28;20446;-71
2022/10/27 10:19:50;;;;;;;7.23;5.80;;;;;;;-143.84;50.82;45012.88;5031872;28;20450;-71
2022/10/27 10:22:23;;;;;;;11.50;6.07;;;;;;;-143.84;50.31;45020.50;5031496;28;20442;-71
2022/10/27 10:24:54;;;;;;;7.47;5.60;;;;;;;-143.84;50.85;45041.44;5031404;28;20442;-71
2022/10/27 10:27:31;;;;;;;12.00;5.37;;;;;;;-143.84;51.56;45030.03;5031160;28;20459;-71
2022/10/27 10:30:00;;;;;;;43.97;10.90;;;;;;;-143.84;51.47;45030.03;5031286;28;20489;-72
2022/10/27 10:32:32;;;;;;;5.50;5.00;;;;;;;-143.84;52.80;45030.03;5031110;28;20449;-72
2022/10/27 10:34:59;;;;;;;12.70;5.70;;;;;;;-143.84;54.03;45022.41;5031175;28;20490;-72
2022/10/27 10:37:39;;;;;;;7.30;5.67;;;;;;;-143.84;54.00;45024.31;5031037;28;20423;-71
2022/10/27 10:40:26;;;;;;;7.47;5.80;;;;;;;-143.84;54.96;45024.31;5030587;28;20492;-72
2022/10/27 10:43:13;;;;;;;16.20;6.37;;;;;;;-143.84;56.83;45052.88;5030743;28;20481;-72
2022/10/27 10:45:41;;;;;;;12.07;4.73;;;;;;;-143.84;55.18;45056.69;5031378;28;20541;-72
2022/10/27 10:48:46;;;;;;;9.10;6.20;;;;;;;-143.84;55.06;45052.88;5031020;28;20454;-72
2022/10/27 10:51:23;;;;;;;6.37;5.40;;;;;;;-143.84;55.17;45043.34;4973547;28;20553;-72
2022/10/27 10:53:53;;;;;;;10.90;5.70;;;;;;;-143.84;56.72;45012.88;5031187;28;20441;-72
2022/10/27 10:56:24;;;;;;;6.20;5.30;;;;;;;-143.84;57.35;45022.41;5030440;28;20478;-72
2022/10/27 10:58:57;;;;;;;8.37;4.90;;;;;;;-143.84;57.88;45026.22;5030116;28;20442;-72
2022/10/27 11:01:28;;;;;;;12.77;5.73;;;;;;;-143.84;58.74;45045.25;5030742;28;20435;-72
2022/10/27 11:03:56;;;;;;;4.93;4.40;;;;;;;-143.84;58.43;45066.22;5030479;28;20463;-72
2022/10/27 11:06:23;;;;;;;5.67;5.17;;;;;;;-143.84;58.70;45024.31;5030604;28;20500;-72
2022/10/27 11:08:58;;;;;;;6.33;5.73;;;;;;;-143.84;57.71;45052.88;5030675;28;20442;-72
2022/10/27 11:11:31;;;;;;;5.67;4.83;;;;;;;-143.84;58.62;45047.16;5030885;28;20520;-72
2022/10/27 11:14:03;;;;;;;7.50;5.47;;;;;;;-143.84;60.22;45054.78;5030533;28;20462;-72
2022/10/27 11:16:33;;;;;;;7.67;6.40;;;;;;;-143.84;60.29;45052.88;5030327;28;20482;-72
2022/10/27 11:19:02;;;;;;;9.27;5.63;;;;;;;-143.84;61.02;45031.94;5030229;28;20450;-72
2022/10/27 11:21:34;;;;;;;8.03;6.30;;;;;;;-143.84;61.36;45047.16;5030620;28;20874;-72
2022/10/27 11:24:08;;;;;;;7.93;5.90;;;;;;;-143.84;61.82;45039.53;5030166;28;20454;-72
2022/10/27 11:26:40;;;;;;;8.60;7.00;;;;;;;-143.84;61.72;45064.31;5030401;28;20454;-72
2022/10/27 11:29:18;;;;;;;7.27;5.97;;;;;;;-143.84;61.63;45068.13;5030248;28;20529;-69